Time;durP1;ratioP1;P1;durP2;ratioP2;P2;SDS_P1;SDS_P2;PMS_P1;PMS_P2;Temp;Humidity;BMP_temperature;BMP_pressure;BME280_temperature;BME280_humidity;BME280_pressure;Samples;Min_cycle;Max_cycle;Signal;HPM_P1;HPM_P2
2022/10/18 00:00:27;;;;;;;36.20;16.08;;;;;;;;;;5032269;28;20437;-73
2022/10/18 00:02:53;;;;;;;30.02;14.88;;;;;;;;;;5032288;28;20034;-73
2022/10/18 00:05:19;;;;;;;26.63;15.20;;;;;;;;;;5031890;28;20029;-76
2022/10/18 00:07:45;;;;;;;24.45;14.63;;;;;;;;;;5031937;28;20064;-73
2022/10/18 00:10:11;;;;;;;27.63;16.00;;;;;;;;;;5032025;28;20026;-73
2022/10/18 00:12:37;;;;;;;35.75;17.45;;;;;;;;;;5031948;28;20026;-73
2022/10/18 00:15:03;;;;;;;36.85;15.98;;;;;;;;;;5031852;28;20406;-74
2022/10/18 00:17:29;;;;;;;32.25;16.42;;;;;;;;;;5031798;28;20382;-73
2022/10/18 00:19:56;;;;;;;30.88;15.63;;;;;;;;;;5031974;28;20036;-74
2022/10/18 00:22:22;;;;;;;31.05;17.02;;;;;;;;;;5032032;28;20161;-73
2022/10/18 00:24:47;;;;;;;31.13;17.70;;;;;;;;;;5031838;28;20064;-73
2022/10/18 00:27:13;;;;;;;32.20;18.15;;;;;;;;;;5031997;28;20473;-73
2022/10/18 00:29:39;;;;;;;31.35;17.60;;;;;;;;;;5032973;28;20115;-72
2022/10/18 00:32:05;;;;;;;38.13;19.10;;;;;;;;;;5032320;28;20034;-73
2022/10/18 00:34:31;;;;;;;37.70;19.08;;;;;;;;;;5032338;28;20101;-73
2022/10/18 00:36:57;;;;;;;33.95;18.85;;;;;;;;;;5031861;28;20057;-73
2022/10/18 00:39:23;;;;;;;30.73;18.77;;;;;;;;;;5031972;28;20543;-73
2022/10/18 00:41:50;;;;;;;39.88;19.42;;;;;;;;;;5031932;28;20479;-72
2022/10/18 00:44:16;;;;;;;38.10;21.02;;;;;;;;;;5032201;28;20029;-72
2022/10/18 00:46:46;;;;;;;35.28;18.98;;;;;;;;;;5032763;28;20093;-71
2022/10/18 00:49:15;;;;;;;38.97;19.80;;;;;;;;;;5058046;22;20053;-75
2022/10/18 00:51:46;;;;;;;35.40;19.25;;;;;;;;;;5033231;28;20025;-77
2022/10/18 00:54:12;;;;;;;41.42;20.33;;;;;;;;;;5033359;28;20088;-75
2022/10/18 00:56:39;;;;;;;38.45;20.48;;;;;;;;;;5032178;28;20033;-76
2022/10/18 00:59:05;;;;;;;39.17;20.77;;;;;;;;;;5033616;28;20348;-75
2022/10/18 01:01:31;;;;;;;42.58;21.33;;;;;;;;;;5033382;28;20037;-75
2022/10/18 01:03:57;;;;;;;40.78;22.50;;;;;;;;;;5033499;28;20029;-75
2022/10/18 01:06:23;;;;;;;42.97;21.77;;;;;;;;;;5035649;28;20032;-76
2022/10/18 01:08:57;;;;;;;44.70;22.80;;;;;;;;;;5036770;28;20022;-77
2022/10/18 01:11:32;;;;;;;37.75;20.08;;;;;;;;;;5055165;28;20026;-75
2022/10/18 01:14:07;;;;;;;39.97;22.95;;;;;;;;;;5055971;28;20091;-74
2022/10/18 01:16:40;;;;;;;43.17;22.27;;;;;;;;;;5020905;28;20053;-77
2022/10/18 01:19:15;;;;;;;55.78;23.73;;;;;;;;;;5036639;28;20026;-76
2022/10/18 01:21:41;;;;;;;40.50;21.40;;;;;;;;;;5037441;28;20030;-77
2022/10/18 01:24:17;;;;;;;37.53;20.70;;;;;;;;;;5037206;28;20155;-77
2022/10/18 01:27:01;;;;;;;43.30;21.98;;;;;;;;;;5036418;28;20029;-75
2022/10/18 01:29:37;;;;;;;37.72;20.33;;;;;;;;;;5036446;28;20029;-76
2022/10/18 01:32:12;;;;;;;35.70;21.10;;;;;;;;;;5037476;28;20026;-77
2022/10/18 01:34:39;;;;;;;48.17;24.10;;;;;;;;;;5041063;28;20029;-76
2022/10/18 01:37:08;;;;;;;47.25;24.05;;;;;;;;;;5043711;28;20030;-75
2022/10/18 01:39:36;;;;;;;41.70;23.67;;;;;;;;;;5024972;28;20036;-75
2022/10/18 01:42:03;;;;;;;47.33;23.73;;;;;;;;;;5036614;28;20164;-76
2022/10/18 01:44:31;;;;;;;44.05;24.25;;;;;;;;;;5035927;28;20030;-76
2022/10/18 01:46:57;;;;;;;51.40;24.27;;;;;;;;;;5035642;28;20516;-76
2022/10/18 01:49:24;;;;;;;43.00;22.83;;;;;;;;;;5034828;28;20029;-74
2022/10/18 01:51:50;;;;;;;36.92;21.25;;;;;;;;;;5036105;28;20025;-75
2022/10/18 01:54:18;;;;;;;40.30;21.98;;;;;;;;;;5038536;28;20481;-75
2022/10/18 01:56:50;;;;;;;45.42;23.30;;;;;;;;;;5036699;28;20028;-76
2022/10/18 01:59:19;;;;;;;41.53;23.27;;;;;;;;;;5036890;28;20037;-77
2022/10/18 02:02:01;;;;;;;44.50;23.63;;;;;;;;;;5035420;28;20035;-76
2022/10/18 02:04:39;;;;;;;40.75;23.60;;;;;;;;;;5035641;28;20038;-76
2022/10/18 02:07:28;;;;;;;43.97;23.42;;;;;;;;;;5035804;28;20029;-76
2022/10/18 02:10:07;;;;;;;50.38;25.77;;;;;;;;;;5053175;28;20033;-76
2022/10/18 02:12:34;;;;;;;48.20;24.88;;;;;;;;;;5042008;28;20013;-75
2022/10/18 02:15:01;;;;;;;52.50;26.08;;;;;;;;;;5059200;28;20048;-74
2022/10/18 02:17:29;;;;;;;51.67;27.27;;;;;;;;;;5059310;28;20040;-75
2022/10/18 02:19:55;;;;;;;49.53;25.70;;;;;;;;;;5048595;28;20033;-75
2022/10/18 02:22:23;;;;;;;44.20;25.73;;;;;;;;;;5032741;28;20108;-76
2022/10/18 02:24:52;;;;;;;47.03;26.45;;;;;;;;;;5035076;28;20489;-77
2022/10/18 02:27:19;;;;;;;54.10;29.02;;;;;;;;;;5034775;28;20049;-76
2022/10/18 02:29:45;;;;;;;48.83;27.05;;;;;;;;;;5034743;28;20036;-76
2022/10/18 02:32:17;;;;;;;47.30;26.83;;;;;;;;;;5018044;28;20026;-76
2022/10/18 02:34:45;;;;;;;51.03;26.73;;;;;;;;;;5037302;28;20036;-76
2022/10/18 02:37:12;;;;;;;53.33;28.83;;;;;;;;;;5042711;28;20112;-76
2022/10/18 02:39:48;;;;;;;49.60;27.58;;;;;;;;;;5043682;28;20025;-75
2022/10/18 02:42:15;;;;;;;57.85;28.80;;;;;;;;;;5042450;28;20051;-76
2022/10/18 02:44:41;;;;;;;56.53;30.20;;;;;;;;;;5041395;28;20029;-76
2022/10/18 02:47:08;;;;;;;60.67;29.35;;;;;;;;;;5044749;28;20033;-75
2022/10/18 02:49:34;;;;;;;51.38;26.73;;;;;;;;;;5041702;28;20029;-75
2022/10/18 02:52:00;;;;;;;53.58;27.17;;;;;;;;;;5039040;28;20028;-76
2022/10/18 02:54:26;;;;;;;57.00;29.15;;;;;;;;;;5040585;28;20006;-75
2022/10/18 02:56:52;;;;;;;53.50;28.30;;;;;;;;;;5038242;28;20091;-75
2022/10/18 02:59:17;;;;;;;51.40;27.05;;;;;;;;;;5035477;28;20026;-75
2022/10/18 03:01:43;;;;;;;47.67;25.95;;;;;;;;;;5039988;28;20374;-75
2022/10/18 03:04:09;;;;;;;57.13;28.35;;;;;;;;;;5037595;28;20032;-75
2022/10/18 03:06:35;;;;;;;59.05;29.85;;;;;;;;;;5034137;28;20091;-75
2022/10/18 03:09:02;;;;;;;49.65;27.75;;;;;;;;;;5034421;28;20049;-76
2022/10/18 03:11:28;;;;;;;46.50;25.92;;;;;;;;;;5019523;28;20120;-75
2022/10/18 03:13:54;;;;;;;53.58;28.13;;;;;;;;;;5037644;28;20037;-75
2022/10/18 03:16:20;;;;;;;54.85;29.75;;;;;;;;;;5035746;28;20026;-77
2022/10/18 03:18:46;;;;;;;58.80;30.10;;;;;;;;;;5034514;28;20037;-75
2022/10/18 03:21:12;;;;;;;61.63;29.65;;;;;;;;;;5036819;28;20439;-75
2022/10/18 03:23:40;;;;;;;59.50;31.52;;;;;;;;;;5035230;28;20030;-75
2022/10/18 03:26:06;;;;;;;60.45;30.90;;;;;;;;;;5015858;28;20063;-75
2022/10/18 03:28:32;;;;;;;70.35;31.83;;;;;;;;;;5033561;28;20071;-76
2022/10/18 03:31:02;;;;;;;64.68;33.58;;;;;;;;;;5033635;28;20025;-76
2022/10/18 03:33:29;;;;;;;60.95;32.03;;;;;;;;;;5033766;28;20017;-75
2022/10/18 03:35:54;;;;;;;63.10;32.85;;;;;;;;;;5034929;28;20021;-77
2022/10/18 03:38:21;;;;;;;69.45;33.63;;;;;;;;;;5039668;28;20034;-76
2022/10/18 03:40:46;;;;;;;62.17;31.05;;;;;;;;;;5051441;28;20021;-76
2022/10/18 03:43:12;;;;;;;68.88;33.08;;;;;;;;;;5056215;28;20529;-76
2022/10/18 03:45:39;;;;;;;66.38;33.80;;;;;;;;;;5046643;28;20092;-78
2022/10/18 03:48:05;;;;;;;63.65;31.88;;;;;;;;;;5044049;28;20029;-77
2022/10/18 03:50:31;;;;;;;67.20;31.77;;;;;;;;;;5035524;28;20025;-78
2022/10/18 03:52:57;;;;;;;62.35;34.08;;;;;;;;;;5034802;28;20170;-74
2022/10/18 03:55:23;;;;;;;60.67;29.33;;;;;;;;;;5036734;28;20048;-77
2022/10/18 03:57:49;;;;;;;62.33;29.80;;;;;;;;;;5043802;28;20025;-77
2022/10/18 04:00:15;;;;;;;59.75;30.48;;;;;;;;;;5033501;28;20024;-75
2022/10/18 04:02:41;;;;;;;56.58;30.88;;;;;;;;;;5034256;28;20025;-76
2022/10/18 04:05:08;;;;;;;56.05;29.70;;;;;;;;;;5033657;28;20038;-76
2022/10/18 04:07:34;;;;;;;54.88;29.75;;;;;;;;;;5033394;28;20112;-77
2022/10/18 04:10:00;;;;;;;58.30;30.15;;;;;;;;;;5033743;28;20064;-76
2022/10/18 04:12:26;;;;;;;54.92;29.67;;;;;;;;;;5016888;28;20041;-77
2022/10/18 04:14:52;;;;;;;54.70;29.25;;;;;;;;;;5016479;28;20021;-77
2022/10/18 04:17:18;;;;;;;50.63;28.50;;;;;;;;;;5033712;28;20025;-77
2022/10/18 04:19:44;;;;;;;54.63;29.45;;;;;;;;;;5033979;28;20092;-77
2022/10/18 04:22:11;;;;;;;62.20;29.88;;;;;;;;;;5034560;28;20028;-76
2022/10/18 04:24:37;;;;;;;68.50;32.25;;;;;;;;;;5036607;28;20025;-76
2022/10/18 04:27:04;;;;;;;53.85;27.85;;;;;;;;;;5037963;28;20214;-76
2022/10/18 04:29:30;;;;;;;50.30;27.77;;;;;;;;;;5053495;28;20025;-75
2022/10/18 04:31:56;;;;;;;62.33;32.00;;;;;;;;;;5056628;28;20018;-75
2022/10/18 04:34:22;;;;;;;59.47;30.77;;;;;;;;;;5039253;28;20060;-75
2022/10/18 04:36:48;;;;;;;58.05;29.48;;;;;;;;;;5053032;28;20017;-75
2022/10/18 04:39:14;;;;;;;68.63;31.38;;;;;;;;;;5055262;28;20013;-77
2022/10/18 04:41:40;;;;;;;61.38;29.83;;;;;;;;;;5035186;28;20026;-77
2022/10/18 04:44:06;;;;;;;56.50;29.98;;;;;;;;;;5017892;28;20501;-77
2022/10/18 04:46:32;;;;;;;54.35;28.80;;;;;;;;;;5036894;28;20120;-75
2022/10/18 04:49:00;;;;;;;55.45;29.63;;;;;;;;;;5037618;28;20490;-76
2022/10/18 04:51:26;;;;;;;54.90;28.23;;;;;;;;;;5039513;28;20123;-76
2022/10/18 04:53:52;;;;;;;51.20;29.58;;;;;;;;;;5037507;28;20047;-75
2022/10/18 04:56:18;;;;;;;55.88;30.25;;;;;;;;;;5036881;28;20017;-75
2022/10/18 04:58:44;;;;;;;56.28;28.80;;;;;;;;;;5038778;28;20028;-76
2022/10/18 05:01:10;;;;;;;54.13;29.45;;;;;;;;;;5037666;28;20030;-76
2022/10/18 05:03:36;;;;;;;60.45;31.23;;;;;;;;;;5036598;28;20071;-77
2022/10/18 05:06:02;;;;;;;59.78;30.67;;;;;;;;;;5036576;28;20060;-77
2022/10/18 05:08:28;;;;;;;53.17;28.38;;;;;;;;;;5037747;28;20041;-76
2022/10/18 05:10:54;;;;;;;55.80;29.75;;;;;;;;;;5039433;28;20025;-76
2022/10/18 05:13:20;;;;;;;67.72;33.35;;;;;;;;;;5039502;28;20051;-76
2022/10/18 05:15:46;;;;;;;76.85;32.53;;;;;;;;;;5037541;28;20017;-76
2022/10/18 05:18:12;;;;;;;57.88;29.25;;;;;;;;;;5038157;28;20033;-76
2022/10/18 05:20:38;;;;;;;69.97;32.58;;;;;;;;;;5039331;28;20437;-75
2022/10/18 05:23:04;;;;;;;64.45;31.65;;;;;;;;;;5036946;28;20582;-77
2022/10/18 05:25:30;;;;;;;62.92;31.40;;;;;;;;;;5036898;28;20029;-77
2022/10/18 05:27:56;;;;;;;62.25;30.33;;;;;;;;;;5040532;28;20030;-76
2022/10/18 05:30:22;;;;;;;63.58;31.10;;;;;;;;;;5041377;28;20030;-76
2022/10/18 05:32:48;;;;;;;68.78;31.90;;;;;;;;;;5023634;28;20104;-77
2022/10/18 05:35:14;;;;;;;65.43;31.08;;;;;;;;;;5036854;28;20053;-76
2022/10/18 05:37:40;;;;;;;63.60;30.60;;;;;;;;;;5037685;28;20043;-78
2022/10/18 05:40:06;;;;;;;67.97;33.10;;;;;;;;;;5020400;28;20515;-77
2022/10/18 05:42:32;;;;;;;67.88;30.98;;;;;;;;;;5018624;28;20056;-76
2022/10/18 05:44:58;;;;;;;71.25;32.30;;;;;;;;;;5036509;28;20021;-76
2022/10/18 05:47:24;;;;;;;63.80;30.08;;;;;;;;;;5019051;28;20021;-76
2022/10/18 05:49:50;;;;;;;60.83;29.17;;;;;;;;;;5036675;28;20037;-78
2022/10/18 05:52:16;;;;;;;66.90;31.95;;;;;;;;;;5037671;28;20318;-76
2022/10/18 05:54:42;;;;;;;59.00;29.13;;;;;;;;;;5017849;28;20026;-76
2022/10/18 05:57:08;;;;;;;68.03;29.85;;;;;;;;;;5036016;28;20049;-76
2022/10/18 05:59:34;;;;;;;68.75;30.58;;;;;;;;;;5036938;28;20084;-74
2022/10/18 06:02:00;;;;;;;63.05;29.60;;;;;;;;;;5036125;28;20025;-74
2022/10/18 06:04:26;;;;;;;60.90;29.30;;;;;;;;;;5036030;28;20467;-74
2022/10/18 06:06:53;;;;;;;63.25;31.35;;;;;;;;;;5037043;28;20483;-76
2022/10/18 06:09:19;;;;;;;70.05;30.90;;;;;;;;;;5046844;28;20062;-74
2022/10/18 06:11:45;;;;;;;63.92;29.77;;;;;;;;;;5048058;28;20025;-77
2022/10/18 06:14:11;;;;;;;62.95;27.88;;;;;;;;;;5039076;28;20032;-78
2022/10/18 06:16:37;;;;;;;64.15;28.50;;;;;;;;;;5039131;28;20048;-75
2022/10/18 06:19:03;;;;;;;70.88;28.50;;;;;;;;;;5037067;28;20123;-74
2022/10/18 06:21:29;;;;;;;55.88;26.45;;;;;;;;;;5040773;28;20029;-77
2022/10/18 06:24:02;;;;;;;63.88;27.65;;;;;;;;;;5042764;28;20065;-77
2022/10/18 06:26:28;;;;;;;65.72;29.08;;;;;;;;;;5024698;28;20032;-77
2022/10/18 06:28:54;;;;;;;55.17;27.13;;;;;;;;;;5040491;28;20112;-75
2022/10/18 06:31:20;;;;;;;66.47;27.40;;;;;;;;;;5040414;28;20071;-78
2022/10/18 06:33:46;;;;;;;56.83;26.83;;;;;;;;;;5019508;28;20021;-76
2022/10/18 06:36:13;;;;;;;56.78;25.88;;;;;;;;;;5033702;28;20021;-76
2022/10/18 06:38:39;;;;;;;60.97;25.90;;;;;;;;;;5036934;28;20029;-76
2022/10/18 06:41:06;;;;;;;59.05;26.58;;;;;;;;;;5020946;28;20469;-78
2022/10/18 06:43:32;;;;;;;51.30;25.27;;;;;;;;;;5022513;28;20026;-77
2022/10/18 06:46:00;;;;;;;58.13;24.73;;;;;;;;;;5036248;28;20309;-77
2022/10/18 06:48:26;;;;;;;54.33;24.65;;;;;;;;;;5022223;28;20128;-76
2022/10/18 06:50:53;;;;;;;52.00;25.48;;;;;;;;;;5040035;28;20040;-75
2022/10/18 06:53:19;;;;;;;59.38;24.73;;;;;;;;;;5039712;28;20029;-77
2022/10/18 06:55:45;;;;;;;63.35;27.05;;;;;;;;;;5057561;28;20041;-76
2022/10/18 06:58:11;;;;;;;57.97;25.50;;;;;;;;;;5057138;28;20014;-76
2022/10/18 07:00:38;;;;;;;52.60;24.80;;;;;;;;;;5056295;23;20454;-73
2022/10/18 07:03:04;;;;;;;56.97;24.50;;;;;;;;;;5035610;28;20239;-74
2022/10/18 07:05:30;;;;;;;57.22;27.60;;;;;;;;;;5052319;28;20417;-72
2022/10/18 07:07:57;;;;;;;58.47;26.55;;;;;;;;;;5034658;28;20025;-73
2022/10/18 07:10:23;;;;;;;67.13;27.63;;;;;;;;;;5052535;28;20036;-73
2022/10/18 07:12:49;;;;;;;54.65;24.33;;;;;;;;;;5052567;28;20023;-72
2022/10/18 07:15:16;;;;;;;58.35;25.13;;;;;;;;;;5052386;28;20532;-73
2022/10/18 07:17:44;;;;;;;73.78;26.90;;;;;;;;;;5052489;28;20074;-73
2022/10/18 07:20:10;;;;;;;65.47;24.40;;;;;;;;;;5052578;28;20117;-73
2022/10/18 07:22:37;;;;;;;60.42;25.40;;;;;;;;;;5052434;28;20056;-74
2022/10/18 07:25:04;;;;;;;57.78;24.02;;;;;;;;;;5055205;28;20597;-74
2022/10/18 07:27:30;;;;;;;53.22;24.63;;;;;;;;;;5038083;28;20033;-75
2022/10/18 07:29:55;;;;;;;61.22;23.75;;;;;;;;;;5052721;28;20559;-74
2022/10/18 07:32:21;;;;;;;53.33;23.10;;;;;;;;;;5053401;28;20434;-71
2022/10/18 07:34:47;;;;;;;54.80;24.05;;;;;;;;;;5034263;28;20482;-72
2022/10/18 07:37:13;;;;;;;53.75;23.10;;;;;;;;;;5052233;28;20067;-73
2022/10/18 07:39:39;;;;;;;60.90;24.73;;;;;;;;;;5054865;28;20025;-75
2022/10/18 07:42:05;;;;;;;50.08;24.13;;;;;;;;;;5052356;28;20496;-74
2022/10/18 07:44:31;;;;;;;48.92;22.27;;;;;;;;;;5052071;28;20099;-73
2022/10/18 07:46:57;;;;;;;52.33;22.67;;;;;;;;;;5051720;28;20020;-72
2022/10/18 07:49:23;;;;;;;48.42;23.02;;;;;;;;;;5053442;28;20025;-73
2022/10/18 07:51:49;;;;;;;60.10;24.60;;;;;;;;;;5052018;28;20466;-73
2022/10/18 07:54:15;;;;;;;60.20;24.08;;;;;;;;;;5052307;28;20025;-73
2022/10/18 07:56:42;;;;;;;47.78;23.50;;;;;;;;;;5052126;28;20013;-73
2022/10/18 07:59:10;;;;;;;60.83;23.17;;;;;;;;;;5052587;28;20467;-72
2022/10/18 08:01:36;;;;;;;52.88;24.33;;;;;;;;;;5052373;28;20039;-72
2022/10/18 08:04:01;;;;;;;54.85;22.95;;;;;;;;;;5034914;28;20104;-74
2022/10/18 08:06:27;;;;;;;60.67;25.05;;;;;;;;;;5052679;28;20025;-73
2022/10/18 08:08:53;;;;;;;60.90;24.45;;;;;;;;;;5052028;28;20492;-74
2022/10/18 08:11:21;;;;;;;51.30;24.50;;;;;;;;;;5052817;28;20385;-74
2022/10/18 08:13:47;;;;;;;54.88;24.67;;;;;;;;;;5052056;28;20420;-73
2022/10/18 08:16:17;;;;;;;55.83;25.52;;;;;;;;;;5033482;28;20111;-72
2022/10/18 08:18:43;;;;;;;64.13;24.42;;;;;;;;;;5055619;28;20036;-73
2022/10/18 08:21:10;;;;;;;55.88;24.65;;;;;;;;;;5059098;28;20028;-73
2022/10/18 08:23:37;;;;;;;52.22;23.38;;;;;;;;;;5061976;28;20033;-73
2022/10/18 08:26:04;;;;;;;61.30;25.15;;;;;;;;;;5066408;28;20051;-74
2022/10/18 08:28:30;;;;;;;51.50;23.00;;;;;;;;;;5067026;28;20032;-73
2022/10/18 08:30:56;;;;;;;59.75;23.40;;;;;;;;;;5068351;28;20017;-74
2022/10/18 08:33:22;;;;;;;50.17;21.98;;;;;;;;;;5069503;28;20100;-73
2022/10/18 08:35:55;;;;;;;44.35;20.67;;;;;;;;;;5070357;28;20100;-74
2022/10/18 08:38:21;;;;;;;52.08;22.50;;;;;;;;;;5071611;28;20029;-73
2022/10/18 08:40:47;;;;;;;59.30;22.00;;;;;;;;;;5064687;28;20508;-73
2022/10/18 08:43:22;;;;;;;48.85;20.13;;;;;;;;;;5060873;28;20477;-73
2022/10/18 08:45:48;;;;;;;;;;;;;;;;;;5058301;28;20067;-73
2022/10/18 08:48:17;;;;;;;42.90;20.45;;;;;;;;;;5058914;28;19948;-74
2022/10/18 08:50:44;;;;;;;51.83;21.70;;;;;;;;;;5058639;28;20021;-73
2022/10/18 08:53:24;;;;;;;58.17;21.15;;;;;;;;;;5040459;28;20024;-73
2022/10/18 08:55:54;;;;;;;52.25;20.42;;;;;;;;;;5058144;28;20032;-73
2022/10/18 08:58:20;;;;;;;51.85;20.33;;;;;;;;;;5058103;28;20021;-72
2022/10/18 09:01:04;;;;;;;45.28;20.20;;;;;;;;;;5057854;28;20025;-72
2022/10/18 09:03:36;;;;;;;51.60;21.38;;;;;;;;;;5058442;28;20033;-73
2022/10/18 09:06:14;;;;;;;44.17;18.33;;;;;;;;;;5057933;28;20052;-72
2022/10/18 09:08:51;;;;;;;46.75;20.73;;;;;;;;;;5059076;28;20450;-73
2022/10/18 09:11:27;;;;;;;46.30;18.48;;;;;;;;;;5059340;28;20386;-73
2022/10/18 09:14:06;;;;;;;38.97;17.77;;;;;;;;;;5058161;28;20017;-74
2022/10/18 09:16:36;;;;;;;44.53;18.40;;;;;;;;;;5058614;28;20100;-72
2022/10/18 09:19:05;;;;;;;37.70;18.15;;;;;;;;;;5045455;28;20039;-73
2022/10/18 09:21:34;;;;;;;41.60;17.70;;;;;;;;;;5061807;28;20465;-73
2022/10/18 09:24:14;;;;;;;40.03;17.23;;;;;;;;;;5039706;28;20488;-73
2022/10/18 09:26:44;;;;;;;37.88;16.00;;;;;;;;;;5039471;28;20032;-72
2022/10/18 09:29:24;;;;;;;31.50;13.57;;;;;;;;;;5056842;28;20031;-75
2022/10/18 09:32:09;;;;;;;30.80;14.18;;;;;;;;;;5054651;28;20440;-73
2022/10/18 09:35:01;;;;;;;27.23;12.30;;;;;;;;;;5054531;28;20021;-73
2022/10/18 09:37:30;;;;;;;31.20;11.48;;;;;;;;;;5023913;28;20029;-72
2022/10/18 09:40:02;;;;;;;35.28;12.98;;;;;;;;;;5054833;28;20025;-72
2022/10/18 09:42:35;;;;;;;30.95;11.85;;;;;;;;;;5054710;28;20025;-72
2022/10/18 09:45:07;;;;;;;25.70;9.63;;;;;;;;;;5054190;28;20029;-73
2022/10/18 09:47:36;;;;;;;22.90;9.77;;;;;;;;;;5054446;28;20053;-73
2022/10/18 09:50:14;;;;;;;22.17;9.65;;;;;;;;;;5055496;28;20033;-74
2022/10/18 09:52:52;;;;;;;24.08;9.77;;;;;;;;;;5054063;28;20454;-73
2022/10/18 09:55:21;;;;;;;33.95;11.25;;;;;;;;;;5054378;28;20104;-73
2022/10/18 09:57:49;;;;;;;28.65;10.00;;;;;;;;;;5054511;28;20021;-73
2022/10/18 10:00:22;;;;;;;25.92;11.05;;;;;;;;;;5054306;28;20474;-73
2022/10/18 10:02:48;;;;;;;24.38;10.55;;;;;;;;;;5054311;28;20044;-74
2022/10/18 10:05:14;;;;;;;29.90;9.73;;;;;;;;;;5053747;28;20067;-74
2022/10/18 10:07:48;;;;;;;25.02;9.35;;;;;;;;;;5035769;28;20470;-72
2022/10/18 10:10:24;;;;;;;27.95;10.45;;;;;;;;;;5054035;28;20033;-73
2022/10/18 10:13:07;;;;;;;27.27;10.80;;;;;;;;;;5054014;28;20043;-74
2022/10/18 10:15:35;;;;;;;23.98;9.50;;;;;;;;;;5053210;28;20013;-74
2022/10/18 10:18:18;;;;;;;30.10;9.80;;;;;;;;;;5053931;28;20044;-75
2022/10/18 10:20:45;;;;;;;31.45;10.75;;;;;;;;;;5053551;28;20110;-75
2022/10/18 10:23:28;;;;;;;32.35;11.77;;;;;;;;;;5054410;28;20032;-74
2022/10/18 10:25:56;;;;;;;17.10;7.45;;;;;;;;;;5053032;28;20115;-75
2022/10/18 10:28:29;;;;;;;23.33;9.35;;;;;;;;;;5053619;28;20025;-76
2022/10/18 10:31:15;;;;;;;24.13;10.30;;;;;;;;;;5053792;28;20062;-75
2022/10/18 10:33:45;;;;;;;25.10;10.45;;;;;;;;;;5043158;28;20084;-74
2022/10/18 10:36:18;;;;;;;21.52;7.93;;;;;;;;;;5060438;28;20025;-75
2022/10/18 10:38:44;;;;;;;23.65;9.32;;;;;;;;;;5059533;28;20032;-75
2022/10/18 10:41:21;;;;;;;23.33;9.20;;;;;;;;;;5057143;28;20029;-75
2022/10/18 10:43:47;;;;;;;26.67;8.68;;;;;;;;;;5055946;28;20039;-75
2022/10/18 10:46:14;;;;;;;20.48;9.00;;;;;;;;;;5054941;28;20027;-72
2022/10/18 10:48:45;;;;;;;27.58;8.63;;;;;;;;;;5055365;28;20036;-76
2022/10/18 10:51:12;;;;;;;20.98;8.77;;;;;;;;;;5053900;28;20060;-76
2022/10/18 10:53:43;;;;;;;22.13;9.10;;;;;;;;;;5053670;28;20029;-74
2022/10/18 10:56:15;;;;;;;20.73;9.00;;;;;;;;;;5053303;28;20017;-73
2022/10/18 10:58:41;;;;;;;25.75;9.80;;;;;;;;;;5053509;28;20507;-74
2022/10/18 11:01:17;;;;;;;21.55;9.20;;;;;;;;;;5053502;28;20037;-73
2022/10/18 11:03:47;;;;;;;22.55;8.38;;;;;;;;;;5055148;28;20497;-74
2022/10/18 11:06:28;;;;;;;27.13;9.90;;;;;;;;;;5034995;28;20029;-73
2022/10/18 11:08:56;;;;;;;20.63;7.35;;;;;;;;;;5054306;28;20091;-74
2022/10/18 11:11:26;;;;;;;29.20;9.25;;;;;;;;;;5054097;28;20486;-73
2022/10/18 11:14:13;;;;;;;31.58;12.15;;;;;;;;;;5054071;28;20393;-73
2022/10/18 11:16:48;;;;;;;28.27;10.18;;;;;;;;;;5035332;28;20029;-74
2022/10/18 11:19:38;;;;;;;28.13;10.40;;;;;;;;;;5053354;28;20029;-73
2022/10/18 11:22:05;;;;;;;30.70;9.65;;;;;;;;;;5042582;28;20040;-74
2022/10/18 11:24:31;;;;;;;26.63;12.50;;;;;;;;;;5053307;28;20025;-73
2022/10/18 11:27:16;;;;;;;21.90;9.85;;;;;;;;;;5054935;28;20557;-73
2022/10/18 11:30:00;;;;;;;30.20;9.82;;;;;;;;;;5053088;28;20393;-75
2022/10/18 11:32:26;;;;;;;;;;;;;;;;;;5055378;28;20100;-74
2022/10/18 11:34:58;;;;;;;25.90;8.93;;;;;;;;;;5057054;28;20002;-74
2022/10/18 11:37:36;;;;;;;20.35;8.80;;;;;;;;;;5054882;28;20083;-74
2022/10/18 11:40:08;;;;;;;22.45;8.48;;;;;;;;;;5037598;28;20056;-72
2022/10/18 11:42:52;;;;;;;23.67;7.35;;;;;;;;;;5054217;28;20039;-75
2022/10/18 11:45:37;;;;;;;28.08;7.45;;;;;;;;;;5034502;28;20496;-73
2022/10/18 11:48:22;;;;;;;28.60;7.90;;;;;;;;;;5052286;28;20060;-73
2022/10/18 11:50:47;;;;;;;;;;;;;;;;;;5036441;28;20114;-73
2022/10/18 11:53:16;;;;;;;17.90;6.38;;;;;;;;;;5051350;28;20568;-74
2022/10/18 11:55:48;;;;;;;18.60;5.20;;;;;;;;;;5051721;28;20105;-72
2022/10/18 11:58:33;;;;;;;19.48;4.88;;;;;;;;;;5051768;28;20028;-73
2022/10/18 12:00:59;;;;;;;;;;;;;;;;;;5034719;28;20040;-77
2022/10/18 12:03:27;;;;;;;22.95;5.82;;;;;;;;;;5052361;28;19909;-74
2022/10/18 12:05:55;;;;;;;19.00;5.00;;;;;;;;;;5052049;28;20107;-74
2022/10/18 12:08:23;;;;;;;20.95;4.15;;;;;;;;;;5054144;28;20424;-76
2022/10/18 12:10:51;;;;;;;21.83;7.55;;;;;;;;;;5052864;28;20032;-73
2022/10/18 12:13:21;;;;;;;24.65;5.50;;;;;;;;;;5052144;28;20021;-74
2022/10/18 12:15:47;;;;;;;22.73;5.05;;;;;;;;;;5034133;28;20032;-75
2022/10/18 12:18:18;;;;;;;23.08;4.97;;;;;;;;;;5045447;28;20035;-73
2022/10/18 12:20:47;;;;;;;24.88;7.15;;;;;;;;;;5052788;28;20025;-74
2022/10/18 12:23:20;;;;;;;17.75;3.88;;;;;;;;;;5051929;28;20035;-72
2022/10/18 12:25:48;;;;;;;18.17;3.95;;;;;;;;;;5033632;28;20029;-73
2022/10/18 12:28:32;;;;;;;28.05;5.85;;;;;;;;;;5052088;28;20465;-73
2022/10/18 12:30:58;;;;;;;15.55;3.47;;;;;;;;;;5053300;28;20548;-72
2022/10/18 12:33:27;;;;;;;26.38;4.45;;;;;;;;;;5051508;28;20017;-73
2022/10/18 12:36:11;;;;;;;23.50;5.72;;;;;;;;;;5051739;28;20044;-73
2022/10/18 12:38:39;;;;;;;16.35;5.03;;;;;;;;;;5051516;28;20067;-73
2022/10/18 12:41:05;;;;;;;22.33;4.25;;;;;;;;;;5033682;28;20063;-73
2022/10/18 12:43:35;;;;;;;18.70;4.15;;;;;;;;;;5051661;28;20037;-73
2022/10/18 12:46:03;;;;;;;21.88;5.10;;;;;;;;;;5051463;28;20032;-73
2022/10/18 12:48:29;;;;;;;20.17;5.88;;;;;;;;;;5051593;28;20428;-73
2022/10/18 12:51:03;;;;;;;22.55;4.53;;;;;;;;;;5052071;28;20059;-75
2022/10/18 12:53:29;;;;;;;18.02;3.50;;;;;;;;;;5036421;28;20035;-72
2022/10/18 12:55:55;;;;;;;22.58;3.55;;;;;;;;;;5051236;28;20064;-73
2022/10/18 12:58:24;;;;;;;18.77;4.97;;;;;;;;;;5056279;28;20055;-74
2022/10/18 13:00:51;;;;;;;19.17;3.70;;;;;;;;;;5057230;22;20050;-75
2022/10/18 13:03:18;;;;;;;19.52;4.07;;;;;;;;;;5033153;28;20659;-76
2022/10/18 13:05:47;;;;;;;19.00;4.13;;;;;;;;;;5017676;28;20022;-77
2022/10/18 13:08:29;;;;;;;17.38;3.47;;;;;;;;;;5035879;28;20128;-76
2022/10/18 13:11:01;;;;;;;13.65;3.17;;;;;;;;;;5036115;28;20025;-76
2022/10/18 13:13:32;;;;;;;14.70;2.90;;;;;;;;;;5035793;28;20029;-75
2022/10/18 13:16:12;;;;;;;26.20;4.13;;;;;;;;;;5035978;28;20033;-76
2022/10/18 13:18:50;;;;;;;20.23;3.47;;;;;;;;;;5035761;28;20029;-76
2022/10/18 13:21:22;;;;;;;15.85;3.40;;;;;;;;;;5018017;28;20029;-78
2022/10/18 13:24:03;;;;;;;20.27;4.15;;;;;;;;;;5035747;28;20032;-76
2022/10/18 13:26:35;;;;;;;25.67;6.63;;;;;;;;;;5036846;28;20447;-74
2022/10/18 13:29:06;;;;;;;29.65;6.78;;;;;;;;;;5035948;28;20502;-75
2022/10/18 13:31:41;;;;;;;17.25;4.55;;;;;;;;;;5036401;28;20031;-75
2022/10/18 13:34:29;;;;;;;19.75;4.55;;;;;;;;;;5037556;28;20115;-75
2022/10/18 13:37:06;;;;;;;22.38;6.90;;;;;;;;;;5036620;28;20035;-74
2022/10/18 13:39:32;;;;;;;24.38;3.80;;;;;;;;;;5039323;28;20362;-75
2022/10/18 13:41:59;;;;;;;24.95;4.88;;;;;;;;;;5035361;28;20479;-75
2022/10/18 13:44:36;;;;;;;17.98;4.15;;;;;;;;;;5036103;28;20025;-77
2022/10/18 13:47:02;;;;;;;16.98;3.55;;;;;;;;;;5036297;28;20108;-74
2022/10/18 13:49:40;;;;;;;17.10;3.53;;;;;;;;;;5036538;28;20068;-77
2022/10/18 13:52:28;;;;;;;20.10;4.53;;;;;;;;;;5036242;28;20075;-76
2022/10/18 13:55:10;;;;;;;15.15;3.17;;;;;;;;;;5035562;28;20037;-78
2022/10/18 13:57:49;;;;;;;21.10;3.20;;;;;;;;;;5035586;28;20389;-75
2022/10/18 14:00:30;;;;;;;18.00;3.65;;;;;;;;;;5036694;28;20040;-77
2022/10/18 14:03:15;;;;;;;21.45;3.00;;;;;;;;;;5039378;28;20391;-77
2022/10/18 14:06:00;;;;;;;20.95;3.42;;;;;;;;;;5027135;28;20482;-77
2022/10/18 14:08:45;;;;;;;20.83;3.67;;;;;;;;;;5040353;28;20030;-76
2022/10/18 14:11:32;;;;;;;25.52;3.70;;;;;;;;;;5041730;28;20025;-77
2022/10/18 14:14:16;;;;;;;22.13;3.30;;;;;;;;;;5024346;28;20029;-77
2022/10/18 14:16:42;;;;;;;22.90;3.67;;;;;;;;;;5046198;28;20018;-79
2022/10/18 14:19:27;;;;;;;20.85;3.53;;;;;;;;;;5047359;28;20036;-77
2022/10/18 14:21:57;;;;;;;18.40;3.53;;;;;;;;;;5039973;28;20064;-75
2022/10/18 14:24:24;;;;;;;17.73;3.47;;;;;;;;;;5036105;28;20053;-77
2022/10/18 14:27:15;;;;;;;22.02;3.13;;;;;;;;;;5017188;28;20033;-75
2022/10/18 14:29:41;;;;;;;25.63;3.85;;;;;;;;;;5018116;28;20026;-76
2022/10/18 14:32:09;;;;;;;19.65;3.47;;;;;;;;;;5042893;28;20109;-77
2022/10/18 14:34:35;;;;;;;29.42;3.90;;;;;;;;;;5046784;28;20029;-76